This is the latest recevied weather packets stored in our database for station/object KF0PEC-15. If no packets are shown the sender has not sent any weather packets the latest 10 day(s).
| Time | Temp. | Humidity | Pressure | Rain* | Wind** | Luminosity | Snow |
|---|---|---|---|---|---|---|---|
| 1777688195 | 8.33° C | 55% | 1022.8 hPa | 0 mm | - | 1 W/m² | - |
| 1777687625 | 8.33° C | 54% | 1022.4 hPa | 0 mm | - | 48 W/m² | - |
| 1777687097 | 9.44° C | 53% | 1021.8 hPa | 0 mm | - | 201 W/m² | - |
| 1777686585 | 10° C | 46% | 1021.3 hPa | 0 mm | - | 524 W/m² | - |
| 1777686005 | 10° C | 45% | 1020.9 hPa | 0 mm | - | 960 W/m² | - |
| 1777685500 | 10.56° C | 45% | 1020.6 hPa | 0 mm | - | 134 W/m² | - |
| 1777684957 | 10.56° C | 42% | 1020.1 hPa | 0 mm | - | 222 W/m² | - |
| 1777684370 | 11.11° C | 44% | 1020 hPa | 0 mm | - | 303 W/m² | - |
| 1777683815 | 11.11° C | 41% | 1019.7 hPa | 0 mm | - | 247 W/m² | - |
| 1777683255 | 11.67° C | 42% | 1019.4 hPa | 0 mm | - | 257 W/m² | - |
| 1777682755 | 11.67° C | 42% | 1019.2 hPa | 0 mm | - | 281 W/m² | - |
| 1777682245 | 11.67° C | 41% | 1019.4 hPa | 0 mm | - | 440 W/m² | - |
| 1777681665 | 11.67° C | 40% | 1019.3 hPa | 0 mm | - | 502 W/m² | - |
| 1777681090 | 11.67° C | 37% | 1019.3 hPa | 0 mm | - | 499 W/m² | - |
| 1777680570 | 11.67° C | 37% | 1019.1 hPa | 0 mm | - | 403 W/m² | - |
| 1777680005 | 12.22° C | 38% | 1018.9 hPa | 0 mm | - | 383 W/m² | - |
| 1777679440 | 12.22° C | 36% | 1018.8 hPa | 0 mm | - | 525 W/m² | - |
| 1777678905 | 11.67° C | 37% | 1018.9 hPa | 0 mm | - | 100 W/m² | - |
| 1777678425 | 11.67° C | 38% | 1018.8 hPa | 0 mm | - | 548 W/m² | - |
| 1777677930 | 11.67° C | 37% | 1018.8 hPa | 0 mm | - | 507 W/m² | - |
| 1777677335 | 12.22° C | 38% | 1018.3 hPa | 0 mm | - | 750 W/m² | - |
| 1777676810 | 12.78° C | 37% | 1017.9 hPa | 0 mm | - | 103 W/m² | - |
| 1777676310 | 13.33° C | 37% | 1017.5 hPa | 0 mm | - | 155 W/m² | - |
| 1777675800 | 13.33° C | 37% | 1017.2 hPa | 0 mm | - | 306 W/m² | - |
| 1777675285 | 12.78° C | 35% | 1017.6 hPa | 0 mm | - | 438 W/m² | - |
* Rain latest hour (hover to see other rain measurements)
** Current wind speed in m/s (hover to see current wind gust speed)